sensor_id;sensor_type;location;lat;lon;timestamp;P1;durP1;ratioP1;P2;durP2;ratioP2
71637;SDS011;59485;43.542;-5.676;2023-05-10T00:02:23;19.08;;;2.35;;
71637;SDS011;59485;43.542;-5.676;2023-05-10T00:04:49;28.17;;;3.35;;
71637;SDS011;59485;43.542;-5.676;2023-05-10T00:07:15;16.27;;;2.33;;
71637;SDS011;59485;43.542;-5.676;2023-05-10T00:09:42;21.83;;;4.00;;
71637;SDS011;59485;43.542;-5.676;2023-05-10T00:12:08;21.92;;;3.85;;
71637;SDS011;59485;43.542;-5.676;2023-05-10T00:14:34;20.10;;;4.33;;
71637;SDS011;59485;43.542;-5.676;2023-05-10T00:16:59;22.65;;;3.65;;
71637;SDS011;59485;43.542;-5.676;2023-05-10T00:19:25;23.70;;;3.80;;
71637;SDS011;59485;43.542;-5.676;2023-05-10T00:21:50;16.42;;;3.38;;
71637;SDS011;59485;43.542;-5.676;2023-05-10T00:24:16;23.23;;;3.40;;
71637;SDS011;59485;43.542;-5.676;2023-05-10T00:26:42;21.03;;;4.20;;
71637;SDS011;59485;43.542;-5.676;2023-05-10T00:29:07;15.20;;;3.08;;
71637;SDS011;59485;43.542;-5.676;2023-05-10T00:31:33;20.67;;;3.63;;
71637;SDS011;59485;43.542;-5.676;2023-05-10T00:33:58;20.50;;;3.10;;
71637;SDS011;59485;43.542;-5.676;2023-05-10T00:36:24;15.63;;;2.28;;
71637;SDS011;59485;43.542;-5.676;2023-05-10T00:38:49;18.30;;;2.43;;
71637;SDS011;59485;43.542;-5.676;2023-05-10T00:41:15;21.67;;;2.00;;
71637;SDS011;59485;43.542;-5.676;2023-05-10T00:43:40;17.23;;;2.00;;
71637;SDS011;59485;43.542;-5.676;2023-05-10T00:46:06;25.53;;;3.03;;
71637;SDS011;59485;43.542;-5.676;2023-05-10T00:48:32;16.75;;;2.33;;
71637;SDS011;59485;43.542;-5.676;2023-05-10T00:50:58;15.20;;;2.10;;
71637;SDS011;59485;43.542;-5.676;2023-05-10T00:53:24;20.17;;;2.30;;
71637;SDS011;59485;43.542;-5.676;2023-05-10T00:55:50;25.38;;;2.35;;
71637;SDS011;59485;43.542;-5.676;2023-05-10T00:58:16;17.80;;;2.50;;
71637;SDS011;59485;43.542;-5.676;2023-05-10T01:00:42;20.70;;;2.90;;
71637;SDS011;59485;43.542;-5.676;2023-05-10T01:03:10;19.17;;;2.25;;
71637;SDS011;59485;43.542;-5.676;2023-05-10T01:05:36;14.35;;;2.20;;
71637;SDS011;59485;43.542;-5.676;2023-05-10T01:08:02;20.52;;;2.17;;
71637;SDS011;59485;43.542;-5.676;2023-05-10T01:10:28;19.33;;;3.63;;
71637;SDS011;59485;43.542;-5.676;2023-05-10T01:12:54;17.40;;;2.70;;
71637;SDS011;59485;43.542;-5.676;2023-05-10T01:15:20;14.63;;;2.53;;
71637;SDS011;59485;43.542;-5.676;2023-05-10T01:17:47;16.40;;;2.63;;
71637;SDS011;59485;43.542;-5.676;2023-05-10T01:20:13;22.63;;;3.80;;
71637;SDS011;59485;43.542;-5.676;2023-05-10T01:23:04;23.40;;;3.85;;
71637;SDS011;59485;43.542;-5.676;2023-05-10T01:28:33;23.75;;;5.47;;
71637;SDS011;59485;43.542;-5.676;2023-05-10T01:33:44;32.20;;;8.60;;
71637;SDS011;59485;43.542;-5.676;2023-05-10T01:36:24;35.20;;;8.23;;
71637;SDS011;59485;43.542;-5.676;2023-05-10T01:38:57;45.92;;;10.77;;
71637;SDS011;59485;43.542;-5.676;2023-05-10T01:44:20;25.13;;;5.47;;
71637;SDS011;59485;43.542;-5.676;2023-05-10T01:49:41;34.22;;;5.22;;
71637;SDS011;59485;43.542;-5.676;2023-05-10T01:52:15;23.48;;;5.05;;
71637;SDS011;59485;43.542;-5.676;2023-05-10T01:54:53;21.58;;;4.43;;
71637;SDS011;59485;43.542;-5.676;2023-05-10T01:57:25;28.23;;;4.20;;
71637;SDS011;59485;43.542;-5.676;2023-05-10T01:59:52;22.27;;;3.08;;
71637;SDS011;59485;43.542;-5.676;2023-05-10T02:02:20;19.60;;;3.47;;
71637;SDS011;59485;43.542;-5.676;2023-05-10T02:04:47;20.15;;;3.08;;
71637;SDS011;59485;43.542;-5.676;2023-05-10T02:07:16;21.70;;;3.58;;
71637;SDS011;59485;43.542;-5.676;2023-05-10T02:09:43;14.77;;;2.47;;
71637;SDS011;59485;43.542;-5.676;2023-05-10T02:12:13;18.55;;;2.72;;
71637;SDS011;59485;43.542;-5.676;2023-05-10T02:14:40;22.95;;;2.95;;
71637;SDS011;59485;43.542;-5.676;2023-05-10T02:17:07;15.43;;;2.63;;
71637;SDS011;59485;43.542;-5.676;2023-05-10T02:19:34;13.07;;;2.03;;
71637;SDS011;59485;43.542;-5.676;2023-05-10T02:22:02;19.07;;;2.30;;
71637;SDS011;59485;43.542;-5.676;2023-05-10T02:24:28;20.67;;;2.65;;
71637;SDS011;59485;43.542;-5.676;2023-05-10T02:26:55;17.67;;;2.22;;
71637;SDS011;59485;43.542;-5.676;2023-05-10T02:29:23;18.95;;;2.03;;
71637;SDS011;59485;43.542;-5.676;2023-05-10T02:31:52;19.55;;;2.72;;
71637;SDS011;59485;43.542;-5.676;2023-05-10T02:34:21;17.60;;;1.70;;
71637;SDS011;59485;43.542;-5.676;2023-05-10T02:36:48;19.88;;;2.28;;
71637;SDS011;59485;43.542;-5.676;2023-05-10T02:39:16;15.27;;;2.20;;
71637;SDS011;59485;43.542;-5.676;2023-05-10T02:41:44;15.73;;;2.00;;
71637;SDS011;59485;43.542;-5.676;2023-05-10T02:44:11;15.98;;;1.90;;
71637;SDS011;59485;43.542;-5.676;2023-05-10T02:46:40;11.63;;;1.83;;
71637;SDS011;59485;43.542;-5.676;2023-05-10T02:49:06;17.00;;;2.17;;
71637;SDS011;59485;43.542;-5.676;2023-05-10T02:51:32;15.35;;;2.33;;
71637;SDS011;59485;43.542;-5.676;2023-05-10T02:54:02;14.77;;;1.97;;
71637;SDS011;59485;43.542;-5.676;2023-05-10T02:56:51;17.02;;;2.22;;
71637;SDS011;59485;43.542;-5.676;2023-05-10T02:59:21;14.20;;;1.98;;
71637;SDS011;59485;43.542;-5.676;2023-05-10T03:01:47;14.40;;;2.33;;
71637;SDS011;59485;43.542;-5.676;2023-05-10T03:04:12;11.15;;;1.70;;
71637;SDS011;59485;43.542;-5.676;2023-05-10T03:06:38;13.50;;;2.00;;
71637;SDS011;59485;43.542;-5.676;2023-05-10T03:09:04;12.05;;;2.08;;
71637;SDS011;59485;43.542;-5.676;2023-05-10T03:16:55;16.80;;;1.70;;
71637;SDS011;59485;43.542;-5.676;2023-05-10T03:22:17;15.55;;;2.40;;
71637;SDS011;59485;43.542;-5.676;2023-05-10T03:24:50;17.42;;;2.10;;
71637;SDS011;59485;43.542;-5.676;2023-05-10T03:27:18;11.60;;;1.60;;
71637;SDS011;59485;43.542;-5.676;2023-05-10T03:29:45;19.23;;;1.80;;
71637;SDS011;59485;43.542;-5.676;2023-05-10T03:32:11;15.15;;;1.83;;
71637;SDS011;59485;43.542;-5.676;2023-05-10T03:34:41;11.07;;;1.53;;
71637;SDS011;59485;43.542;-5.676;2023-05-10T03:37:08;10.00;;;1.63;;
71637;SDS011;59485;43.542;-5.676;2023-05-10T03:39:34;13.15;;;1.67;;
71637;SDS011;59485;43.542;-5.676;2023-05-10T03:41:59;17.73;;;2.40;;
71637;SDS011;59485;43.542;-5.676;2023-05-10T03:44:25;12.55;;;1.90;;
71637;SDS011;59485;43.542;-5.676;2023-05-10T03:46:50;13.00;;;1.93;;
71637;SDS011;59485;43.542;-5.676;2023-05-10T03:49:16;14.67;;;1.70;;
71637;SDS011;59485;43.542;-5.676;2023-05-10T03:51:41;11.83;;;1.77;;
71637;SDS011;59485;43.542;-5.676;2023-05-10T03:54:07;13.07;;;1.90;;
71637;SDS011;59485;43.542;-5.676;2023-05-10T03:56:32;7.97;;;1.53;;
71637;SDS011;59485;43.542;-5.676;2023-05-10T03:58:58;17.80;;;1.80;;
71637;SDS011;59485;43.542;-5.676;2023-05-10T04:01:23;13.75;;;1.80;;
71637;SDS011;59485;43.542;-5.676;2023-05-10T04:03:49;12.97;;;1.93;;
71637;SDS011;59485;43.542;-5.676;2023-05-10T04:06:14;18.93;;;2.13;;
71637;SDS011;59485;43.542;-5.676;2023-05-10T04:08:40;13.05;;;1.48;;
71637;SDS011;59485;43.542;-5.676;2023-05-10T04:11:06;13.50;;;1.70;;
71637;SDS011;59485;43.542;-5.676;2023-05-10T04:13:33;11.50;;;1.65;;
71637;SDS011;59485;43.542;-5.676;2023-05-10T04:15:59;11.48;;;1.30;;
71637;SDS011;59485;43.542;-5.676;2023-05-10T04:18:25;14.97;;;2.03;;
71637;SDS011;59485;43.542;-5.676;2023-05-10T04:20:51;18.95;;;2.08;;
71637;SDS011;59485;43.542;-5.676;2023-05-10T04:23:16;12.70;;;2.23;;
71637;SDS011;59485;43.542;-5.676;2023-05-10T04:25:42;14.90;;;1.83;;
71637;SDS011;59485;43.542;-5.676;2023-05-10T04:28:08;14.13;;;2.03;;
71637;SDS011;59485;43.542;-5.676;2023-05-10T04:30:33;15.80;;;1.83;;
71637;SDS011;59485;43.542;-5.676;2023-05-10T04:32:59;7.90;;;1.45;;
71637;SDS011;59485;43.542;-5.676;2023-05-10T04:35:26;10.55;;;1.80;;
71637;SDS011;59485;43.542;-5.676;2023-05-10T04:37:53;14.18;;;1.88;;
71637;SDS011;59485;43.542;-5.676;2023-05-10T04:40:19;17.33;;;2.17;;
71637;SDS011;59485;43.542;-5.676;2023-05-10T04:42:45;15.03;;;2.00;;
71637;SDS011;59485;43.542;-5.676;2023-05-10T04:45:11;14.93;;;1.75;;
71637;SDS011;59485;43.542;-5.676;2023-05-10T04:47:36;18.02;;;2.13;;
71637;SDS011;59485;43.542;-5.676;2023-05-10T04:50:02;14.20;;;2.30;;
71637;SDS011;59485;43.542;-5.676;2023-05-10T04:52:28;17.80;;;2.92;;
71637;SDS011;59485;43.542;-5.676;2023-05-10T04:54:54;17.37;;;3.00;;
71637;SDS011;59485;43.542;-5.676;2023-05-10T04:57:19;14.25;;;2.17;;
71637;SDS011;59485;43.542;-5.676;2023-05-10T04:59:45;17.93;;;2.93;;
71637;SDS011;59485;43.542;-5.676;2023-05-10T05:02:10;15.80;;;2.80;;
71637;SDS011;59485;43.542;-5.676;2023-05-10T05:04:36;16.50;;;3.00;;
71637;SDS011;59485;43.542;-5.676;2023-05-10T05:07:02;13.60;;;2.67;;
71637;SDS011;59485;43.542;-5.676;2023-05-10T05:09:27;11.53;;;2.67;;
71637;SDS011;59485;43.542;-5.676;2023-05-10T05:11:53;11.38;;;2.65;;
71637;SDS011;59485;43.542;-5.676;2023-05-10T05:14:18;12.80;;;3.23;;
71637;SDS011;59485;43.542;-5.676;2023-05-10T05:16:46;14.55;;;3.20;;
71637;SDS011;59485;43.542;-5.676;2023-05-10T05:19:11;15.32;;;3.10;;
71637;SDS011;59485;43.542;-5.676;2023-05-10T05:21:37;13.47;;;3.03;;
71637;SDS011;59485;43.542;-5.676;2023-05-10T05:24:03;15.43;;;2.97;;
71637;SDS011;59485;43.542;-5.676;2023-05-10T05:26:29;19.03;;;3.00;;
71637;SDS011;59485;43.542;-5.676;2023-05-10T05:28:54;14.80;;;2.70;;
71637;SDS011;59485;43.542;-5.676;2023-05-10T05:31:20;19.83;;;3.27;;
71637;SDS011;59485;43.542;-5.676;2023-05-10T05:33:46;15.60;;;3.10;;
71637;SDS011;59485;43.542;-5.676;2023-05-10T05:36:11;16.60;;;2.80;;
71637;SDS011;59485;43.542;-5.676;2023-05-10T05:38:40;14.60;;;2.55;;
71637;SDS011;59485;43.542;-5.676;2023-05-10T05:41:06;18.80;;;3.10;;
71637;SDS011;59485;43.542;-5.676;2023-05-10T05:43:31;15.07;;;4.77;;
71637;SDS011;59485;43.542;-5.676;2023-05-10T05:45:57;19.00;;;3.08;;
71637;SDS011;59485;43.542;-5.676;2023-05-10T05:48:23;14.47;;;3.13;;
71637;SDS011;59485;43.542;-5.676;2023-05-10T05:50:48;18.63;;;4.07;;
71637;SDS011;59485;43.542;-5.676;2023-05-10T05:53:14;13.73;;;2.50;;
71637;SDS011;59485;43.542;-5.676;2023-05-10T05:55:40;19.23;;;3.30;;
71637;SDS011;59485;43.542;-5.676;2023-05-10T05:58:17;16.20;;;3.25;;
71637;SDS011;59485;43.542;-5.676;2023-05-10T06:00:42;13.90;;;2.30;;
71637;SDS011;59485;43.542;-5.676;2023-05-10T06:03:11;18.27;;;2.73;;
71637;SDS011;59485;43.542;-5.676;2023-05-10T06:05:37;14.18;;;2.65;;
71637;SDS011;59485;43.542;-5.676;2023-05-10T06:08:02;15.57;;;2.30;;
71637;SDS011;59485;43.542;-5.676;2023-05-10T06:10:28;16.40;;;2.50;;
71637;SDS011;59485;43.542;-5.676;2023-05-10T06:12:56;14.20;;;2.27;;
71637;SDS011;59485;43.542;-5.676;2023-05-10T06:15:22;13.68;;;2.83;;
71637;SDS011;59485;43.542;-5.676;2023-05-10T06:17:47;9.87;;;1.37;;
71637;SDS011;59485;43.542;-5.676;2023-05-10T06:20:14;12.20;;;1.80;;
71637;SDS011;59485;43.542;-5.676;2023-05-10T06:22:40;13.60;;;2.08;;
71637;SDS011;59485;43.542;-5.676;2023-05-10T06:25:06;12.43;;;2.50;;
71637;SDS011;59485;43.542;-5.676;2023-05-10T06:27:32;19.17;;;2.13;;
71637;SDS011;59485;43.542;-5.676;2023-05-10T06:29:58;11.45;;;1.67;;
71637;SDS011;59485;43.542;-5.676;2023-05-10T06:32:24;16.90;;;2.00;;
71637;SDS011;59485;43.542;-5.676;2023-05-10T06:34:49;14.10;;;2.28;;
71637;SDS011;59485;43.542;-5.676;2023-05-10T06:37:15;13.87;;;2.10;;
71637;SDS011;59485;43.542;-5.676;2023-05-10T06:39:40;11.67;;;1.70;;
71637;SDS011;59485;43.542;-5.676;2023-05-10T06:42:06;16.95;;;2.00;;
71637;SDS011;59485;43.542;-5.676;2023-05-10T06:44:31;13.37;;;2.23;;
71637;SDS011;59485;43.542;-5.676;2023-05-10T06:46:57;13.23;;;1.87;;
71637;SDS011;59485;43.542;-5.676;2023-05-10T06:49:22;13.90;;;1.73;;
71637;SDS011;59485;43.542;-5.676;2023-05-10T06:51:48;10.80;;;1.90;;
71637;SDS011;59485;43.542;-5.676;2023-05-10T06:54:14;14.55;;;1.95;;
71637;SDS011;59485;43.542;-5.676;2023-05-10T06:56:39;12.10;;;1.37;;
71637;SDS011;59485;43.542;-5.676;2023-05-10T06:59:05;12.30;;;1.67;;
71637;SDS011;59485;43.542;-5.676;2023-05-10T07:01:30;11.95;;;1.60;;
71637;SDS011;59485;43.542;-5.676;2023-05-10T07:03:56;11.70;;;1.80;;
71637;SDS011;59485;43.542;-5.676;2023-05-10T07:06:21;9.60;;;1.67;;
71637;SDS011;59485;43.542;-5.676;2023-05-10T07:08:47;11.98;;;1.88;;
71637;SDS011;59485;43.542;-5.676;2023-05-10T07:11:12;20.77;;;1.83;;
71637;SDS011;59485;43.542;-5.676;2023-05-10T07:13:38;11.23;;;1.63;;
71637;SDS011;59485;43.542;-5.676;2023-05-10T07:16:06;13.32;;;2.22;;
71637;SDS011;59485;43.542;-5.676;2023-05-10T07:18:32;15.25;;;1.60;;
71637;SDS011;59485;43.542;-5.676;2023-05-10T07:20:58;10.60;;;2.03;;
71637;SDS011;59485;43.542;-5.676;2023-05-10T07:23:24;12.73;;;2.05;;
71637;SDS011;59485;43.542;-5.676;2023-05-10T07:25:50;18.30;;;2.20;;
71637;SDS011;59485;43.542;-5.676;2023-05-10T07:28:19;7.65;;;1.50;;
71637;SDS011;59485;43.542;-5.676;2023-05-10T07:30:46;10.85;;;1.88;;
71637;SDS011;59485;43.542;-5.676;2023-05-10T07:33:12;11.57;;;1.77;;
71637;SDS011;59485;43.542;-5.676;2023-05-10T07:35:39;12.85;;;2.13;;
71637;SDS011;59485;43.542;-5.676;2023-05-10T07:38:04;10.53;;;1.70;;
71637;SDS011;59485;43.542;-5.676;2023-05-10T07:40:30;9.03;;;1.70;;
71637;SDS011;59485;43.542;-5.676;2023-05-10T07:42:56;9.10;;;1.30;;
71637;SDS011;59485;43.542;-5.676;2023-05-10T07:45:22;11.63;;;1.63;;
71637;SDS011;59485;43.542;-5.676;2023-05-10T07:47:50;10.80;;;1.43;;
71637;SDS011;59485;43.542;-5.676;2023-05-10T07:50:15;10.93;;;1.42;;
71637;SDS011;59485;43.542;-5.676;2023-05-10T07:52:41;11.23;;;1.13;;
71637;SDS011;59485;43.542;-5.676;2023-05-10T07:55:07;14.87;;;1.60;;
71637;SDS011;59485;43.542;-5.676;2023-05-10T07:57:33;12.90;;;1.40;;
71637;SDS011;59485;43.542;-5.676;2023-05-10T07:59:59;11.43;;;1.50;;
71637;SDS011;59485;43.542;-5.676;2023-05-10T08:02:24;10.60;;;1.30;;
71637;SDS011;59485;43.542;-5.676;2023-05-10T08:04:50;11.98;;;1.77;;
71637;SDS011;59485;43.542;-5.676;2023-05-10T08:07:16;13.97;;;1.50;;
71637;SDS011;59485;43.542;-5.676;2023-05-10T08:09:42;10.00;;;1.65;;
71637;SDS011;59485;43.542;-5.676;2023-05-10T08:12:07;10.07;;;1.23;;
71637;SDS011;59485;43.542;-5.676;2023-05-10T08:14:33;7.97;;;0.97;;
71637;SDS011;59485;43.542;-5.676;2023-05-10T08:16:58;16.63;;;2.63;;
71637;SDS011;59485;43.542;-5.676;2023-05-10T08:19:24;9.33;;;1.50;;
71637;SDS011;59485;43.542;-5.676;2023-05-10T08:21:49;11.63;;;1.93;;
71637;SDS011;59485;43.542;-5.676;2023-05-10T08:24:15;13.45;;;2.13;;
71637;SDS011;59485;43.542;-5.676;2023-05-10T08:26:40;13.00;;;1.57;;
71637;SDS011;59485;43.542;-5.676;2023-05-10T08:29:06;10.67;;;2.33;;
71637;SDS011;59485;43.542;-5.676;2023-05-10T08:31:31;11.65;;;1.85;;
71637;SDS011;59485;43.542;-5.676;2023-05-10T08:33:57;11.13;;;2.60;;
71637;SDS011;59485;43.542;-5.676;2023-05-10T08:36:22;8.07;;;2.03;;
71637;SDS011;59485;43.542;-5.676;2023-05-10T08:38:52;11.02;;;2.47;;
71637;SDS011;59485;43.542;-5.676;2023-05-10T08:41:21;14.85;;;3.63;;
71637;SDS011;59485;43.542;-5.676;2023-05-10T08:43:50;12.50;;;2.28;;
71637;SDS011;59485;43.542;-5.676;2023-05-10T08:46:16;11.82;;;2.45;;
71637;SDS011;59485;43.542;-5.676;2023-05-10T08:48:44;12.73;;;2.10;;
71637;SDS011;59485;43.542;-5.676;2023-05-10T08:51:14;12.63;;;2.00;;
71637;SDS011;59485;43.542;-5.676;2023-05-10T08:53:42;11.80;;;2.63;;
71637;SDS011;59485;43.542;-5.676;2023-05-10T08:56:09;11.50;;;2.30;;
71637;SDS011;59485;43.542;-5.676;2023-05-10T08:58:35;12.77;;;2.88;;
71637;SDS011;59485;43.542;-5.676;2023-05-10T09:01:02;11.53;;;2.00;;
71637;SDS011;59485;43.542;-5.676;2023-05-10T09:03:29;11.35;;;1.38;;
71637;SDS011;59485;43.542;-5.676;2023-05-10T09:05:55;11.52;;;2.17;;
71637;SDS011;59485;43.542;-5.676;2023-05-10T09:08:25;11.07;;;1.60;;
71637;SDS011;59485;43.542;-5.676;2023-05-10T09:10:52;13.23;;;1.95;;
71637;SDS011;59485;43.542;-5.676;2023-05-10T09:13:19;8.17;;;1.53;;
71637;SDS011;59485;43.542;-5.676;2023-05-10T09:15:47;12.65;;;1.50;;
71637;SDS011;59485;43.542;-5.676;2023-05-10T09:18:13;13.80;;;1.70;;
71637;SDS011;59485;43.542;-5.676;2023-05-10T09:20:42;12.77;;;1.58;;
71637;SDS011;59485;43.542;-5.676;2023-05-10T09:23:07;11.13;;;1.77;;
71637;SDS011;59485;43.542;-5.676;2023-05-10T09:25:33;11.65;;;1.83;;
71637;SDS011;59485;43.542;-5.676;2023-05-10T09:27:59;9.45;;;1.50;;
71637;SDS011;59485;43.542;-5.676;2023-05-10T09:30:26;10.17;;;1.20;;
71637;SDS011;59485;43.542;-5.676;2023-05-10T09:32:53;9.57;;;1.40;;
71637;SDS011;59485;43.542;-5.676;2023-05-10T09:35:20;11.68;;;1.00;;
71637;SDS011;59485;43.542;-5.676;2023-05-10T09:37:48;7.50;;;1.00;;
71637;SDS011;59485;43.542;-5.676;2023-05-10T09:40:16;9.10;;;1.30;;
71637;SDS011;59485;43.542;-5.676;2023-05-10T09:42:50;8.68;;;1.23;;
71637;SDS011;59485;43.542;-5.676;2023-05-10T09:45:16;7.97;;;0.98;;
71637;SDS011;59485;43.542;-5.676;2023-05-10T09:47:41;7.53;;;1.30;;
71637;SDS011;59485;43.542;-5.676;2023-05-10T09:50:07;7.82;;;1.05;;
71637;SDS011;59485;43.542;-5.676;2023-05-10T09:55:11;9.83;;;2.33;;
71637;SDS011;59485;43.542;-5.676;2023-05-10T09:57:37;7.95;;;1.25;;
71637;SDS011;59485;43.542;-5.676;2023-05-10T10:00:03;8.33;;;1.50;;
71637;SDS011;59485;43.542;-5.676;2023-05-10T10:02:30;10.52;;;1.88;;
71637;SDS011;59485;43.542;-5.676;2023-05-10T10:04:56;11.73;;;2.10;;
71637;SDS011;59485;43.542;-5.676;2023-05-10T10:07:22;8.27;;;1.50;;
71637;SDS011;59485;43.542;-5.676;2023-05-10T10:09:50;10.15;;;1.40;;
71637;SDS011;59485;43.542;-5.676;2023-05-10T10:12:16;10.73;;;1.67;;
71637;SDS011;59485;43.542;-5.676;2023-05-10T10:14:41;10.90;;;1.70;;
71637;SDS011;59485;43.542;-5.676;2023-05-10T10:17:08;10.13;;;1.60;;
71637;SDS011;59485;43.542;-5.676;2023-05-10T10:19:34;7.95;;;1.33;;
71637;SDS011;59485;43.542;-5.676;2023-05-10T10:22:00;12.87;;;1.83;;
71637;SDS011;59485;43.542;-5.676;2023-05-10T10:24:26;12.68;;;1.90;;
71637;SDS011;59485;43.542;-5.676;2023-05-10T10:26:52;9.67;;;1.63;;
71637;SDS011;59485;43.542;-5.676;2023-05-10T10:32:19;12.02;;;1.45;;
71637;SDS011;59485;43.542;-5.676;2023-05-10T10:34:51;8.47;;;1.47;;
71637;SDS011;59485;43.542;-5.676;2023-05-10T10:37:17;8.10;;;1.83;;
71637;SDS011;59485;43.542;-5.676;2023-05-10T10:39:43;14.35;;;2.28;;
71637;SDS011;59485;43.542;-5.676;2023-05-10T10:42:08;8.40;;;1.00;;
71637;SDS011;59485;43.542;-5.676;2023-05-10T10:44:35;11.87;;;1.47;;
71637;SDS011;59485;43.542;-5.676;2023-05-10T10:55:07;12.90;;;1.98;;
71637;SDS011;59485;43.542;-5.676;2023-05-10T11:00:24;16.80;;;1.48;;
71637;SDS011;59485;43.542;-5.676;2023-05-10T11:03:06;15.75;;;1.73;;
71637;SDS011;59485;43.542;-5.676;2023-05-10T11:08:12;14.82;;;1.27;;
71637;SDS011;59485;43.542;-5.676;2023-05-10T11:10:49;14.73;;;1.30;;
71637;SDS011;59485;43.542;-5.676;2023-05-10T11:13:27;9.73;;;0.95;;
71637;SDS011;59485;43.542;-5.676;2023-05-10T11:15:55;9.23;;;1.30;;
71637;SDS011;59485;43.542;-5.676;2023-05-10T11:20:58;10.52;;;1.55;;
71637;SDS011;59485;43.542;-5.676;2023-05-10T11:23:32;9.57;;;0.80;;
71637;SDS011;59485;43.542;-5.676;2023-05-10T11:26:12;10.90;;;1.35;;
71637;SDS011;59485;43.542;-5.676;2023-05-10T11:28:42;10.95;;;2.15;;
71637;SDS011;59485;43.542;-5.676;2023-05-10T11:31:08;11.32;;;1.20;;
71637;SDS011;59485;43.542;-5.676;2023-05-10T11:36:17;9.37;;;1.87;;
71637;SDS011;59485;43.542;-5.676;2023-05-10T11:38:43;11.23;;;1.50;;
71637;SDS011;59485;43.542;-5.676;2023-05-10T11:41:12;10.10;;;1.52;;
71637;SDS011;59485;43.542;-5.676;2023-05-10T11:43:39;12.43;;;1.85;;
71637;SDS011;59485;43.542;-5.676;2023-05-10T11:46:05;11.75;;;1.02;;
71637;SDS011;59485;43.542;-5.676;2023-05-10T11:48:33;14.30;;;1.90;;
71637;SDS011;59485;43.542;-5.676;2023-05-10T11:50:58;10.40;;;1.00;;
71637;SDS011;59485;43.542;-5.676;2023-05-10T11:53:27;12.32;;;1.10;;
71637;SDS011;59485;43.542;-5.676;2023-05-10T11:55:53;15.70;;;1.40;;
71637;SDS011;59485;43.542;-5.676;2023-05-10T11:58:18;9.82;;;1.55;;
71637;SDS011;59485;43.542;-5.676;2023-05-10T12:00:44;13.10;;;1.60;;
71637;SDS011;59485;43.542;-5.676;2023-05-10T12:03:11;10.60;;;1.20;;
71637;SDS011;59485;43.542;-5.676;2023-05-10T12:05:37;10.80;;;1.10;;
71637;SDS011;59485;43.542;-5.676;2023-05-10T12:08:12;10.07;;;0.97;;
71637;SDS011;59485;43.542;-5.676;2023-05-10T12:10:39;15.25;;;1.17;;
71637;SDS011;59485;43.542;-5.676;2023-05-10T12:13:04;8.18;;;1.20;;
71637;SDS011;59485;43.542;-5.676;2023-05-10T12:15:30;8.13;;;1.10;;
71637;SDS011;59485;43.542;-5.676;2023-05-10T12:17:58;9.17;;;1.17;;
71637;SDS011;59485;43.542;-5.676;2023-05-10T12:20:26;10.88;;;1.40;;
71637;SDS011;59485;43.542;-5.676;2023-05-10T12:22:53;8.95;;;1.00;;
71637;SDS011;59485;43.542;-5.676;2023-05-10T12:25:21;8.32;;;1.17;;
71637;SDS011;59485;43.542;-5.676;2023-05-10T12:27:49;8.73;;;1.30;;
71637;SDS011;59485;43.542;-5.676;2023-05-10T12:30:24;12.73;;;1.53;;
71637;SDS011;59485;43.542;-5.676;2023-05-10T12:32:50;7.60;;;1.10;;
71637;SDS011;59485;43.542;-5.676;2023-05-10T12:35:16;8.35;;;1.02;;
71637;SDS011;59485;43.542;-5.676;2023-05-10T12:37:46;11.23;;;1.50;;
71637;SDS011;59485;43.542;-5.676;2023-05-10T12:40:13;8.88;;;0.80;;
71637;SDS011;59485;43.542;-5.676;2023-05-10T12:42:39;9.03;;;0.97;;
71637;SDS011;59485;43.542;-5.676;2023-05-10T12:45:05;11.00;;;1.40;;
71637;SDS011;59485;43.542;-5.676;2023-05-10T12:47:33;6.45;;;1.30;;
71637;SDS011;59485;43.542;-5.676;2023-05-10T12:50:02;7.28;;;1.40;;
71637;SDS011;59485;43.542;-5.676;2023-05-10T12:52:28;8.80;;;1.17;;
71637;SDS011;59485;43.542;-5.676;2023-05-10T12:54:54;9.83;;;0.90;;
71637;SDS011;59485;43.542;-5.676;2023-05-10T12:57:20;8.68;;;1.00;;
71637;SDS011;59485;43.542;-5.676;2023-05-10T12:59:46;8.95;;;1.55;;
71637;SDS011;59485;43.542;-5.676;2023-05-10T13:02:12;14.70;;;1.63;;
71637;SDS011;59485;43.542;-5.676;2023-05-10T13:04:38;10.02;;;0.95;;
71637;SDS011;59485;43.542;-5.676;2023-05-10T13:07:05;10.07;;;1.57;;
71637;SDS011;59485;43.542;-5.676;2023-05-10T13:09:31;9.30;;;1.20;;
71637;SDS011;59485;43.542;-5.676;2023-05-10T13:11:57;8.90;;;1.00;;
71637;SDS011;59485;43.542;-5.676;2023-05-10T13:14:22;10.77;;;1.13;;
71637;SDS011;59485;43.542;-5.676;2023-05-10T13:16:48;10.03;;;1.20;;
71637;SDS011;59485;43.542;-5.676;2023-05-10T13:19:14;12.05;;;1.08;;
71637;SDS011;59485;43.542;-5.676;2023-05-10T13:21:39;9.90;;;0.93;;
71637;SDS011;59485;43.542;-5.676;2023-05-10T13:24:09;11.50;;;0.90;;
71637;SDS011;59485;43.542;-5.676;2023-05-10T13:26:35;9.68;;;1.08;;
71637;SDS011;59485;43.542;-5.676;2023-05-10T13:29:01;11.43;;;1.27;;
71637;SDS011;59485;43.542;-5.676;2023-05-10T13:31:27;12.70;;;1.10;;
71637;SDS011;59485;43.542;-5.676;2023-05-10T13:33:53;7.63;;;0.80;;
71637;SDS011;59485;43.542;-5.676;2023-05-10T13:36:18;14.53;;;1.63;;
71637;SDS011;59485;43.542;-5.676;2023-05-10T13:38:44;7.97;;;1.10;;
71637;SDS011;59485;43.542;-5.676;2023-05-10T13:41:09;12.73;;;0.98;;
71637;SDS011;59485;43.542;-5.676;2023-05-10T13:43:35;10.23;;;1.13;;
71637;SDS011;59485;43.542;-5.676;2023-05-10T13:46:01;8.70;;;1.50;;
71637;SDS011;59485;43.542;-5.676;2023-05-10T13:48:27;7.53;;;1.00;;
71637;SDS011;59485;43.542;-5.676;2023-05-10T13:50:53;8.83;;;1.10;;
71637;SDS011;59485;43.542;-5.676;2023-05-10T13:53:19;13.02;;;0.95;;
71637;SDS011;59485;43.542;-5.676;2023-05-10T13:55:44;10.97;;;1.47;;
71637;SDS011;59485;43.542;-5.676;2023-05-10T13:58:10;7.70;;;0.90;;
71637;SDS011;59485;43.542;-5.676;2023-05-10T14:00:35;8.38;;;0.82;;
71637;SDS011;59485;43.542;-5.676;2023-05-10T14:03:01;6.50;;;1.20;;
71637;SDS011;59485;43.542;-5.676;2023-05-10T14:05:27;9.07;;;1.05;;
71637;SDS011;59485;43.542;-5.676;2023-05-10T14:07:52;10.10;;;1.17;;
71637;SDS011;59485;43.542;-5.676;2023-05-10T14:10:18;11.88;;;1.60;;
71637;SDS011;59485;43.542;-5.676;2023-05-10T14:12:44;10.85;;;1.60;;
71637;SDS011;59485;43.542;-5.676;2023-05-10T14:15:09;10.33;;;1.20;;
71637;SDS011;59485;43.542;-5.676;2023-05-10T14:17:36;8.02;;;1.17;;
71637;SDS011;59485;43.542;-5.676;2023-05-10T14:20:02;8.80;;;1.93;;
71637;SDS011;59485;43.542;-5.676;2023-05-10T14:22:28;11.40;;;0.90;;
71637;SDS011;59485;43.542;-5.676;2023-05-10T14:24:54;13.57;;;1.23;;
71637;SDS011;59485;43.542;-5.676;2023-05-10T14:27:20;5.33;;;1.07;;
71637;SDS011;59485;43.542;-5.676;2023-05-10T14:29:46;6.60;;;1.05;;
71637;SDS011;59485;43.542;-5.676;2023-05-10T14:32:12;10.97;;;1.40;;
71637;SDS011;59485;43.542;-5.676;2023-05-10T14:34:38;8.13;;;1.00;;
71637;SDS011;59485;43.542;-5.676;2023-05-10T14:37:03;11.97;;;1.57;;
71637;SDS011;59485;43.542;-5.676;2023-05-10T14:39:29;10.00;;;1.08;;
71637;SDS011;59485;43.542;-5.676;2023-05-10T14:41:55;6.87;;;1.20;;
71637;SDS011;59485;43.542;-5.676;2023-05-10T14:44:21;9.38;;;1.02;;
71637;SDS011;59485;43.542;-5.676;2023-05-10T14:46:46;7.53;;;1.00;;
71637;SDS011;59485;43.542;-5.676;2023-05-10T14:49:13;9.57;;;1.30;;
71637;SDS011;59485;43.542;-5.676;2023-05-10T14:51:39;9.60;;;1.90;;
71637;SDS011;59485;43.542;-5.676;2023-05-10T14:54:04;8.23;;;1.07;;
71637;SDS011;59485;43.542;-5.676;2023-05-10T14:56:30;8.30;;;1.25;;
71637;SDS011;59485;43.542;-5.676;2023-05-10T14:58:56;8.77;;;1.25;;
71637;SDS011;59485;43.542;-5.676;2023-05-10T15:01:22;8.40;;;1.50;;
71637;SDS011;59485;43.542;-5.676;2023-05-10T15:03:48;11.25;;;1.30;;
71637;SDS011;59485;43.542;-5.676;2023-05-10T15:06:14;7.37;;;1.07;;